sensor_id;sensor_type;location;lat;lon;timestamp;P1;durP1;ratioP1;P2;durP2;ratioP2
8397;SDS011;4236;54.504;9.588;2023-11-21T00:00:46;29.57;;;27.10;;
8397;SDS011;4236;54.504;9.588;2023-11-21T00:03:13;30.20;;;27.80;;
8397;SDS011;4236;54.504;9.588;2023-11-21T00:05:41;27.17;;;24.73;;
8397;SDS011;4236;54.504;9.588;2023-11-21T00:08:09;27.40;;;25.10;;
8397;SDS011;4236;54.504;9.588;2023-11-21T00:10:38;28.07;;;25.90;;
8397;SDS011;4236;54.504;9.588;2023-11-21T00:13:07;27.20;;;25.00;;
8397;SDS011;4236;54.504;9.588;2023-11-21T00:15:34;27.60;;;25.60;;
8397;SDS011;4236;54.504;9.588;2023-11-21T00:18:02;27.03;;;24.97;;
8397;SDS011;4236;54.504;9.588;2023-11-21T00:20:30;26.33;;;24.03;;
8397;SDS011;4236;54.504;9.588;2023-11-21T00:22:58;27.33;;;25.10;;
8397;SDS011;4236;54.504;9.588;2023-11-21T00:25:25;27.23;;;25.30;;
8397;SDS011;4236;54.504;9.588;2023-11-21T00:27:53;25.70;;;23.60;;
8397;SDS011;4236;54.504;9.588;2023-11-21T00:30:22;27.80;;;25.60;;
8397;SDS011;4236;54.504;9.588;2023-11-21T00:32:50;28.97;;;26.67;;
8397;SDS011;4236;54.504;9.588;2023-11-21T00:35:17;27.90;;;25.70;;
8397;SDS011;4236;54.504;9.588;2023-11-21T00:37:45;26.67;;;24.67;;
8397;SDS011;4236;54.504;9.588;2023-11-21T00:40:12;29.33;;;26.90;;
8397;SDS011;4236;54.504;9.588;2023-11-21T00:42:41;26.37;;;24.30;;
8397;SDS011;4236;54.504;9.588;2023-11-21T00:45:10;27.53;;;25.10;;
8397;SDS011;4236;54.504;9.588;2023-11-21T00:47:39;26.87;;;24.97;;
8397;SDS011;4236;54.504;9.588;2023-11-21T00:50:07;28.70;;;26.30;;
8397;SDS011;4236;54.504;9.588;2023-11-21T00:52:34;30.10;;;27.70;;
8397;SDS011;4236;54.504;9.588;2023-11-21T00:55:02;30.43;;;27.27;;
8397;SDS011;4236;54.504;9.588;2023-11-21T00:57:30;31.60;;;29.03;;
8397;SDS011;4236;54.504;9.588;2023-11-21T00:59:57;31.37;;;28.40;;
8397;SDS011;4236;54.504;9.588;2023-11-21T01:02:25;29.57;;;27.00;;
8397;SDS011;4236;54.504;9.588;2023-11-21T01:04:54;28.17;;;25.53;;
8397;SDS011;4236;54.504;9.588;2023-11-21T01:07:22;25.43;;;23.20;;
8397;SDS011;4236;54.504;9.588;2023-11-21T01:09:50;26.23;;;23.63;;
8397;SDS011;4236;54.504;9.588;2023-11-21T01:12:18;25.60;;;23.50;;
8397;SDS011;4236;54.504;9.588;2023-11-21T01:14:45;27.40;;;24.97;;
8397;SDS011;4236;54.504;9.588;2023-11-21T01:17:13;27.83;;;25.30;;
8397;SDS011;4236;54.504;9.588;2023-11-21T01:19:41;25.93;;;23.40;;
8397;SDS011;4236;54.504;9.588;2023-11-21T01:22:10;24.97;;;22.47;;
8397;SDS011;4236;54.504;9.588;2023-11-21T01:24:38;22.30;;;20.10;;
8397;SDS011;4236;54.504;9.588;2023-11-21T01:27:06;22.70;;;20.70;;
8397;SDS011;4236;54.504;9.588;2023-11-21T01:29:35;20.90;;;19.27;;
8397;SDS011;4236;54.504;9.588;2023-11-21T01:32:03;23.03;;;21.27;;
8397;SDS011;4236;54.504;9.588;2023-11-21T01:34:31;21.60;;;19.83;;
8397;SDS011;4236;54.504;9.588;2023-11-21T01:36:58;20.73;;;18.80;;
8397;SDS011;4236;54.504;9.588;2023-11-21T01:39:27;18.30;;;16.70;;
8397;SDS011;4236;54.504;9.588;2023-11-21T01:41:55;20.50;;;18.90;;
8397;SDS011;4236;54.504;9.588;2023-11-21T01:44:24;20.20;;;18.70;;
8397;SDS011;4236;54.504;9.588;2023-11-21T01:46:52;23.07;;;21.00;;
8397;SDS011;4236;54.504;9.588;2023-11-21T01:49:20;22.23;;;20.53;;
8397;SDS011;4236;54.504;9.588;2023-11-21T01:51:48;23.83;;;21.87;;
8397;SDS011;4236;54.504;9.588;2023-11-21T01:54:16;24.03;;;22.03;;
8397;SDS011;4236;54.504;9.588;2023-11-21T01:56:46;24.73;;;22.50;;
8397;SDS011;4236;54.504;9.588;2023-11-21T01:59:15;24.23;;;22.43;;
8397;SDS011;4236;54.504;9.588;2023-11-21T02:01:45;23.90;;;21.80;;
8397;SDS011;4236;54.504;9.588;2023-11-21T02:04:13;22.53;;;20.83;;
8397;SDS011;4236;54.504;9.588;2023-11-21T02:06:41;24.17;;;22.07;;
8397;SDS011;4236;54.504;9.588;2023-11-21T02:09:09;22.80;;;20.87;;
8397;SDS011;4236;54.504;9.588;2023-11-21T02:11:41;20.67;;;19.07;;
8397;SDS011;4236;54.504;9.588;2023-11-21T02:14:10;21.30;;;19.80;;
8397;SDS011;4236;54.504;9.588;2023-11-21T02:16:39;19.80;;;18.13;;
8397;SDS011;4236;54.504;9.588;2023-11-21T02:19:07;19.70;;;18.33;;
8397;SDS011;4236;54.504;9.588;2023-11-21T02:21:35;19.83;;;18.43;;
8397;SDS011;4236;54.504;9.588;2023-11-21T02:24:08;19.30;;;17.80;;
8397;SDS011;4236;54.504;9.588;2023-11-21T02:26:36;20.43;;;18.87;;
8397;SDS011;4236;54.504;9.588;2023-11-21T02:29:03;18.50;;;17.30;;
8397;SDS011;4236;54.504;9.588;2023-11-21T02:31:31;17.40;;;16.30;;
8397;SDS011;4236;54.504;9.588;2023-11-21T02:34:00;19.80;;;18.30;;
8397;SDS011;4236;54.504;9.588;2023-11-21T02:36:27;20.03;;;18.33;;
8397;SDS011;4236;54.504;9.588;2023-11-21T02:38:55;19.07;;;17.60;;
8397;SDS011;4236;54.504;9.588;2023-11-21T02:41:24;19.07;;;17.63;;
8397;SDS011;4236;54.504;9.588;2023-11-21T02:43:52;19.17;;;17.67;;
8397;SDS011;4236;54.504;9.588;2023-11-21T02:46:19;18.13;;;17.00;;
8397;SDS011;4236;54.504;9.588;2023-11-21T02:48:47;18.47;;;17.27;;
8397;SDS011;4236;54.504;9.588;2023-11-21T02:51:14;19.43;;;17.93;;
8397;SDS011;4236;54.504;9.588;2023-11-21T02:53:42;18.33;;;17.03;;
8397;SDS011;4236;54.504;9.588;2023-11-21T02:56:10;18.00;;;17.00;;
8397;SDS011;4236;54.504;9.588;2023-11-21T02:58:40;17.90;;;16.87;;
8397;SDS011;4236;54.504;9.588;2023-11-21T03:01:09;18.07;;;16.87;;
8397;SDS011;4236;54.504;9.588;2023-11-21T03:03:37;19.00;;;17.50;;
8397;SDS011;4236;54.504;9.588;2023-11-21T03:06:06;19.13;;;17.93;;
8397;SDS011;4236;54.504;9.588;2023-11-21T03:08:34;18.03;;;16.83;;
8397;SDS011;4236;54.504;9.588;2023-11-21T03:11:02;19.47;;;18.17;;
8397;SDS011;4236;54.504;9.588;2023-11-21T03:13:30;18.33;;;17.03;;
8397;SDS011;4236;54.504;9.588;2023-11-21T03:15:59;19.63;;;17.83;;
8397;SDS011;4236;54.504;9.588;2023-11-21T03:18:27;18.10;;;16.80;;
8397;SDS011;4236;54.504;9.588;2023-11-21T03:20:55;18.47;;;16.87;;
8397;SDS011;4236;54.504;9.588;2023-11-21T03:23:23;19.00;;;17.80;;
8397;SDS011;4236;54.504;9.588;2023-11-21T03:25:50;17.53;;;16.30;;
8397;SDS011;4236;54.504;9.588;2023-11-21T03:28:18;17.80;;;16.87;;
8397;SDS011;4236;54.504;9.588;2023-11-21T03:30:45;17.27;;;16.27;;
8397;SDS011;4236;54.504;9.588;2023-11-21T03:33:14;17.70;;;16.23;;
8397;SDS011;4236;54.504;9.588;2023-11-21T03:35:42;18.13;;;16.93;;
8397;SDS011;4236;54.504;9.588;2023-11-21T03:38:10;18.63;;;17.53;;
8397;SDS011;4236;54.504;9.588;2023-11-21T03:40:38;17.73;;;16.73;;
8397;SDS011;4236;54.504;9.588;2023-11-21T03:43:06;17.63;;;16.63;;
8397;SDS011;4236;54.504;9.588;2023-11-21T03:45:34;18.17;;;17.23;;
8397;SDS011;4236;54.504;9.588;2023-11-21T03:48:02;16.77;;;15.67;;
8397;SDS011;4236;54.504;9.588;2023-11-21T03:50:31;16.87;;;15.57;;
8397;SDS011;4236;54.504;9.588;2023-11-21T03:52:58;17.50;;;16.20;;
8397;SDS011;4236;54.504;9.588;2023-11-21T03:55:26;16.10;;;15.20;;
8397;SDS011;4236;54.504;9.588;2023-11-21T03:57:54;16.67;;;15.40;;
8397;SDS011;4236;54.504;9.588;2023-11-21T04:00:21;15.20;;;14.50;;
8397;SDS011;4236;54.504;9.588;2023-11-21T04:02:49;15.07;;;14.23;;
8397;SDS011;4236;54.504;9.588;2023-11-21T04:05:19;15.30;;;14.53;;
8397;SDS011;4236;54.504;9.588;2023-11-21T04:07:49;15.00;;;14.20;;
8397;SDS011;4236;54.504;9.588;2023-11-21T04:10:17;16.47;;;15.57;;
8397;SDS011;4236;54.504;9.588;2023-11-21T04:12:45;16.57;;;15.47;;
8397;SDS011;4236;54.504;9.588;2023-11-21T04:15:13;16.70;;;15.70;;
8397;SDS011;4236;54.504;9.588;2023-11-21T04:17:40;14.80;;;13.77;;
8397;SDS011;4236;54.504;9.588;2023-11-21T04:20:08;15.33;;;14.53;;
8397;SDS011;4236;54.504;9.588;2023-11-21T04:22:37;15.60;;;14.53;;
8397;SDS011;4236;54.504;9.588;2023-11-21T04:25:09;16.33;;;15.13;;
8397;SDS011;4236;54.504;9.588;2023-11-21T04:27:39;15.83;;;15.00;;
8397;SDS011;4236;54.504;9.588;2023-11-21T04:30:07;15.53;;;14.70;;
8397;SDS011;4236;54.504;9.588;2023-11-21T04:32:36;16.00;;;15.10;;
8397;SDS011;4236;54.504;9.588;2023-11-21T04:35:03;15.23;;;14.33;;
8397;SDS011;4236;54.504;9.588;2023-11-21T04:37:31;16.70;;;15.90;;
8397;SDS011;4236;54.504;9.588;2023-11-21T04:39:58;14.30;;;13.60;;
8397;SDS011;4236;54.504;9.588;2023-11-21T04:42:27;15.80;;;14.90;;
8397;SDS011;4236;54.504;9.588;2023-11-21T04:44:55;15.50;;;14.60;;
8397;SDS011;4236;54.504;9.588;2023-11-21T04:47:22;15.20;;;14.30;;
8397;SDS011;4236;54.504;9.588;2023-11-21T04:49:50;17.43;;;16.03;;
8397;SDS011;4236;54.504;9.588;2023-11-21T04:52:18;17.30;;;16.40;;
8397;SDS011;4236;54.504;9.588;2023-11-21T04:54:46;17.83;;;16.60;;
8397;SDS011;4236;54.504;9.588;2023-11-21T04:57:14;17.90;;;16.87;;
8397;SDS011;4236;54.504;9.588;2023-11-21T04:59:45;17.30;;;16.40;;
8397;SDS011;4236;54.504;9.588;2023-11-21T05:02:13;17.53;;;16.10;;
8397;SDS011;4236;54.504;9.588;2023-11-21T05:05:00;15.77;;;14.87;;
8397;SDS011;4236;54.504;9.588;2023-11-21T05:07:28;14.33;;;13.60;;
8397;SDS011;4236;54.504;9.588;2023-11-21T05:09:58;14.90;;;14.20;;
8397;SDS011;4236;54.504;9.588;2023-11-21T05:12:25;16.57;;;15.53;;
8397;SDS011;4236;54.504;9.588;2023-11-21T05:14:54;17.17;;;15.70;;
8397;SDS011;4236;54.504;9.588;2023-11-21T05:17:22;15.63;;;14.80;;
8397;SDS011;4236;54.504;9.588;2023-11-21T05:19:49;15.53;;;14.70;;
8397;SDS011;4236;54.504;9.588;2023-11-21T05:22:17;16.13;;;15.33;;
8397;SDS011;4236;54.504;9.588;2023-11-21T05:24:46;15.90;;;15.00;;
8397;SDS011;4236;54.504;9.588;2023-11-21T05:27:13;15.80;;;14.90;;
8397;SDS011;4236;54.504;9.588;2023-11-21T05:29:42;15.63;;;14.90;;
8397;SDS011;4236;54.504;9.588;2023-11-21T05:32:11;17.10;;;16.07;;
8397;SDS011;4236;54.504;9.588;2023-11-21T05:34:39;15.83;;;14.97;;
8397;SDS011;4236;54.504;9.588;2023-11-21T05:37:07;15.93;;;15.03;;
8397;SDS011;4236;54.504;9.588;2023-11-21T05:39:35;15.60;;;14.80;;
8397;SDS011;4236;54.504;9.588;2023-11-21T05:42:02;16.83;;;15.67;;
8397;SDS011;4236;54.504;9.588;2023-11-21T05:44:30;16.33;;;15.53;;
8397;SDS011;4236;54.504;9.588;2023-11-21T05:46:58;16.20;;;15.10;;
8397;SDS011;4236;54.504;9.588;2023-11-21T05:49:27;16.37;;;15.57;;
8397;SDS011;4236;54.504;9.588;2023-11-21T05:51:56;16.10;;;15.20;;
8397;SDS011;4236;54.504;9.588;2023-11-21T05:54:26;16.27;;;15.47;;
8397;SDS011;4236;54.504;9.588;2023-11-21T05:56:54;16.50;;;15.50;;
8397;SDS011;4236;54.504;9.588;2023-11-21T05:59:21;17.37;;;16.37;;
8397;SDS011;4236;54.504;9.588;2023-11-21T06:01:49;17.00;;;16.20;;
8397;SDS011;4236;54.504;9.588;2023-11-21T06:04:16;17.80;;;16.90;;
8397;SDS011;4236;54.504;9.588;2023-11-21T06:06:46;16.47;;;15.63;;
8397;SDS011;4236;54.504;9.588;2023-11-21T06:09:14;16.50;;;15.23;;
8397;SDS011;4236;54.504;9.588;2023-11-21T06:11:41;17.33;;;16.43;;
8397;SDS011;4236;54.504;9.588;2023-11-21T06:14:08;16.57;;;15.77;;
8397;SDS011;4236;54.504;9.588;2023-11-21T06:16:37;16.57;;;15.67;;
8397;SDS011;4236;54.504;9.588;2023-11-21T06:19:06;17.13;;;16.23;;
8397;SDS011;4236;54.504;9.588;2023-11-21T06:21:34;17.90;;;16.80;;
8397;SDS011;4236;54.504;9.588;2023-11-21T06:24:03;17.53;;;16.60;;
8397;SDS011;4236;54.504;9.588;2023-11-21T06:26:30;18.07;;;17.07;;
8397;SDS011;4236;54.504;9.588;2023-11-21T06:28:58;17.67;;;16.43;;
8397;SDS011;4236;54.504;9.588;2023-11-21T06:31:25;16.60;;;15.57;;
8397;SDS011;4236;54.504;9.588;2023-11-21T06:33:53;17.27;;;16.37;;
8397;SDS011;4236;54.504;9.588;2023-11-21T06:36:21;17.97;;;16.90;;
8397;SDS011;4236;54.504;9.588;2023-11-21T06:38:48;17.83;;;16.93;;
8397;SDS011;4236;54.504;9.588;2023-11-21T06:41:17;18.77;;;17.77;;
8397;SDS011;4236;54.504;9.588;2023-11-21T06:43:45;18.43;;;17.53;;
8397;SDS011;4236;54.504;9.588;2023-11-21T06:46:13;17.90;;;16.80;;
8397;SDS011;4236;54.504;9.588;2023-11-21T06:48:42;18.20;;;17.10;;
8397;SDS011;4236;54.504;9.588;2023-11-21T06:51:10;19.20;;;18.00;;
8397;SDS011;4236;54.504;9.588;2023-11-21T06:53:37;19.83;;;18.70;;
8397;SDS011;4236;54.504;9.588;2023-11-21T06:56:05;19.93;;;18.43;;
8397;SDS011;4236;54.504;9.588;2023-11-21T06:58:43;20.27;;;18.97;;
8397;SDS011;4236;54.504;9.588;2023-11-21T07:01:11;20.53;;;19.03;;
8397;SDS011;4236;54.504;9.588;2023-11-21T07:03:39;20.00;;;18.60;;
8397;SDS011;4236;54.504;9.588;2023-11-21T07:06:08;19.03;;;17.63;;
8397;SDS011;4236;54.504;9.588;2023-11-21T07:08:35;20.23;;;18.83;;
8397;SDS011;4236;54.504;9.588;2023-11-21T07:11:03;20.53;;;19.27;;
8397;SDS011;4236;54.504;9.588;2023-11-21T07:13:31;21.50;;;19.77;;
8397;SDS011;4236;54.504;9.588;2023-11-21T07:16:00;20.60;;;19.07;;
8397;SDS011;4236;54.504;9.588;2023-11-21T07:18:27;19.83;;;18.53;;
8397;SDS011;4236;54.504;9.588;2023-11-21T07:20:55;19.43;;;18.17;;
8397;SDS011;4236;54.504;9.588;2023-11-21T07:23:24;19.40;;;18.10;;
8397;SDS011;4236;54.504;9.588;2023-11-21T07:25:52;17.23;;;16.03;;
8397;SDS011;4236;54.504;9.588;2023-11-21T07:28:20;18.90;;;17.80;;
8397;SDS011;4236;54.504;9.588;2023-11-21T07:30:47;18.40;;;17.30;;
8397;SDS011;4236;54.504;9.588;2023-11-21T07:33:16;21.30;;;19.90;;
8397;SDS011;4236;54.504;9.588;2023-11-21T07:35:43;21.43;;;19.80;;
8397;SDS011;4236;54.504;9.588;2023-11-21T07:38:12;17.90;;;16.83;;
8397;SDS011;4236;54.504;9.588;2023-11-21T07:40:40;18.47;;;17.20;;
8397;SDS011;4236;54.504;9.588;2023-11-21T07:43:08;17.67;;;16.53;;
8397;SDS011;4236;54.504;9.588;2023-11-21T07:45:36;19.50;;;18.10;;
8397;SDS011;4236;54.504;9.588;2023-11-21T07:48:04;19.60;;;18.30;;
8397;SDS011;4236;54.504;9.588;2023-11-21T07:50:34;19.43;;;18.20;;
8397;SDS011;4236;54.504;9.588;2023-11-21T07:53:01;19.30;;;18.10;;
8397;SDS011;4236;54.504;9.588;2023-11-21T07:55:32;19.77;;;18.40;;
8397;SDS011;4236;54.504;9.588;2023-11-21T07:57:59;17.47;;;16.27;;
8397;SDS011;4236;54.504;9.588;2023-11-21T08:00:27;20.83;;;19.03;;
8397;SDS011;4236;54.504;9.588;2023-11-21T08:02:56;19.60;;;18.23;;
8397;SDS011;4236;54.504;9.588;2023-11-21T08:05:24;18.87;;;17.57;;
8397;SDS011;4236;54.504;9.588;2023-11-21T08:08:04;17.43;;;16.43;;
8397;SDS011;4236;54.504;9.588;2023-11-21T08:10:31;19.87;;;18.50;;
8397;SDS011;4236;54.504;9.588;2023-11-21T08:12:59;18.70;;;17.53;;
8397;SDS011;4236;54.504;9.588;2023-11-21T08:15:26;19.63;;;18.30;;
8397;SDS011;4236;54.504;9.588;2023-11-21T08:17:54;19.23;;;17.70;;
8397;SDS011;4236;54.504;9.588;2023-11-21T08:20:22;21.10;;;19.70;;
8397;SDS011;4236;54.504;9.588;2023-11-21T08:22:50;21.27;;;19.87;;
8397;SDS011;4236;54.504;9.588;2023-11-21T08:25:20;20.70;;;19.37;;
8397;SDS011;4236;54.504;9.588;2023-11-21T08:27:48;19.50;;;18.30;;
8397;SDS011;4236;54.504;9.588;2023-11-21T08:30:16;20.57;;;19.23;;
8397;SDS011;4236;54.504;9.588;2023-11-21T08:32:45;21.33;;;19.60;;
8397;SDS011;4236;54.504;9.588;2023-11-21T08:35:14;21.43;;;19.97;;
8397;SDS011;4236;54.504;9.588;2023-11-21T08:37:42;21.77;;;20.10;;
8397;SDS011;4236;54.504;9.588;2023-11-21T08:40:10;22.03;;;20.43;;
8397;SDS011;4236;54.504;9.588;2023-11-21T08:42:43;21.30;;;19.47;;
8397;SDS011;4236;54.504;9.588;2023-11-21T08:45:11;19.73;;;18.33;;
8397;SDS011;4236;54.504;9.588;2023-11-21T08:47:39;19.67;;;18.20;;
8397;SDS011;4236;54.504;9.588;2023-11-21T08:50:07;18.70;;;17.20;;
8397;SDS011;4236;54.504;9.588;2023-11-21T08:52:35;19.87;;;18.47;;
8397;SDS011;4236;54.504;9.588;2023-11-21T08:55:04;21.90;;;20.50;;
8397;SDS011;4236;54.504;9.588;2023-11-21T08:57:34;18.33;;;16.90;;
8397;SDS011;4236;54.504;9.588;2023-11-21T09:00:03;19.50;;;18.20;;
8397;SDS011;4236;54.504;9.588;2023-11-21T09:02:33;17.83;;;16.53;;
8397;SDS011;4236;54.504;9.588;2023-11-21T09:05:01;19.83;;;18.33;;
8397;SDS011;4236;54.504;9.588;2023-11-21T09:07:30;18.43;;;17.20;;
8397;SDS011;4236;54.504;9.588;2023-11-21T09:09:57;17.90;;;16.60;;
8397;SDS011;4236;54.504;9.588;2023-11-21T09:12:25;19.20;;;18.10;;
8397;SDS011;4236;54.504;9.588;2023-11-21T09:14:52;19.67;;;18.30;;
8397;SDS011;4236;54.504;9.588;2023-11-21T09:17:21;18.63;;;17.50;;
8397;SDS011;4236;54.504;9.588;2023-11-21T09:19:49;17.93;;;16.70;;
8397;SDS011;4236;54.504;9.588;2023-11-21T09:22:17;16.77;;;15.73;;
8397;SDS011;4236;54.504;9.588;2023-11-21T09:24:45;19.30;;;17.90;;
8397;SDS011;4236;54.504;9.588;2023-11-21T09:27:14;18.83;;;17.80;;
8397;SDS011;4236;54.504;9.588;2023-11-21T09:29:43;18.07;;;16.97;;
8397;SDS011;4236;54.504;9.588;2023-11-21T09:32:11;19.57;;;18.20;;
8397;SDS011;4236;54.504;9.588;2023-11-21T09:34:42;16.87;;;15.93;;
8397;SDS011;4236;54.504;9.588;2023-11-21T09:37:09;18.43;;;17.40;;
8397;SDS011;4236;54.504;9.588;2023-11-21T09:39:37;19.30;;;18.20;;
8397;SDS011;4236;54.504;9.588;2023-11-21T09:42:08;18.00;;;16.90;;
8397;SDS011;4236;54.504;9.588;2023-11-21T09:44:42;17.70;;;16.50;;
8397;SDS011;4236;54.504;9.588;2023-11-21T09:47:12;18.87;;;17.37;;
8397;SDS011;4236;54.504;9.588;2023-11-21T09:49:46;17.10;;;16.20;;
8397;SDS011;4236;54.504;9.588;2023-11-21T09:52:17;16.23;;;15.47;;
8397;SDS011;4236;54.504;9.588;2023-11-21T09:54:46;17.10;;;16.20;;
8397;SDS011;4236;54.504;9.588;2023-11-21T09:57:13;17.23;;;16.23;;
8397;SDS011;4236;54.504;9.588;2023-11-21T09:59:41;16.80;;;15.90;;
8397;SDS011;4236;54.504;9.588;2023-11-21T10:02:10;17.77;;;16.77;;
8397;SDS011;4236;54.504;9.588;2023-11-21T10:04:39;17.30;;;16.40;;
8397;SDS011;4236;54.504;9.588;2023-11-21T10:07:09;19.03;;;17.60;;
8397;SDS011;4236;54.504;9.588;2023-11-21T10:09:37;16.87;;;15.77;;
8397;SDS011;4236;54.504;9.588;2023-11-21T10:12:05;17.27;;;16.17;;
8397;SDS011;4236;54.504;9.588;2023-11-21T10:14:35;16.53;;;15.63;;
8397;SDS011;4236;54.504;9.588;2023-11-21T10:17:03;16.90;;;16.00;;
8397;SDS011;4236;54.504;9.588;2023-11-21T10:19:32;15.90;;;15.00;;
8397;SDS011;4236;54.504;9.588;2023-11-21T10:21:59;16.83;;;15.77;;
8397;SDS011;4236;54.504;9.588;2023-11-21T10:24:31;16.87;;;15.97;;
8397;SDS011;4236;54.504;9.588;2023-11-21T10:27:13;17.37;;;16.37;;
8397;SDS011;4236;54.504;9.588;2023-11-21T10:29:41;16.00;;;15.17;;
8397;SDS011;4236;54.504;9.588;2023-11-21T10:32:09;15.93;;;15.13;;
8397;SDS011;4236;54.504;9.588;2023-11-21T10:34:36;15.97;;;15.13;;
8397;SDS011;4236;54.504;9.588;2023-11-21T10:37:10;16.40;;;15.60;;
8397;SDS011;4236;54.504;9.588;2023-11-21T10:39:40;16.13;;;15.20;;
8397;SDS011;4236;54.504;9.588;2023-11-21T10:42:10;17.30;;;16.20;;
8397;SDS011;4236;54.504;9.588;2023-11-21T10:44:37;15.13;;;14.33;;
8397;SDS011;4236;54.504;9.588;2023-11-21T10:47:05;15.70;;;14.77;;
8397;SDS011;4236;54.504;9.588;2023-11-21T10:49:38;15.50;;;14.50;;
8397;SDS011;4236;54.504;9.588;2023-11-21T10:52:07;14.73;;;13.70;;
8397;SDS011;4236;54.504;9.588;2023-11-21T10:54:34;15.33;;;14.47;;
8397;SDS011;4236;54.504;9.588;2023-11-21T10:57:03;15.40;;;14.30;;
8397;SDS011;4236;54.504;9.588;2023-11-21T10:59:31;16.40;;;15.50;;
8397;SDS011;4236;54.504;9.588;2023-11-21T11:01:59;15.60;;;14.50;;
8397;SDS011;4236;54.504;9.588;2023-11-21T11:04:30;15.33;;;14.03;;
8397;SDS011;4236;54.504;9.588;2023-11-21T11:07:01;15.20;;;14.30;;
8397;SDS011;4236;54.504;9.588;2023-11-21T11:09:31;17.20;;;16.17;;
8397;SDS011;4236;54.504;9.588;2023-11-21T11:12:00;17.00;;;15.70;;
8397;SDS011;4236;54.504;9.588;2023-11-21T11:14:30;17.30;;;16.20;;
8397;SDS011;4236;54.504;9.588;2023-11-21T11:16:59;17.00;;;16.00;;
8397;SDS011;4236;54.504;9.588;2023-11-21T11:19:27;17.17;;;16.13;;
8397;SDS011;4236;54.504;9.588;2023-11-21T11:24:52;17.37;;;16.27;;
8397;SDS011;4236;54.504;9.588;2023-11-21T11:27:27;17.20;;;16.17;;
8397;SDS011;4236;54.504;9.588;2023-11-21T11:30:00;19.57;;;18.07;;
8397;SDS011;4236;54.504;9.588;2023-11-21T11:32:34;17.20;;;16.40;;
8397;SDS011;4236;54.504;9.588;2023-11-21T11:35:04;20.57;;;19.17;;
8397;SDS011;4236;54.504;9.588;2023-11-21T11:37:33;17.33;;;16.33;;
8397;SDS011;4236;54.504;9.588;2023-11-21T11:40:01;17.40;;;16.10;;
8397;SDS011;4236;54.504;9.588;2023-11-21T11:42:32;16.70;;;15.50;;
8397;SDS011;4236;54.504;9.588;2023-11-21T11:45:01;16.80;;;15.70;;
8397;SDS011;4236;54.504;9.588;2023-11-21T11:47:31;17.17;;;16.17;;
8397;SDS011;4236;54.504;9.588;2023-11-21T11:50:02;16.73;;;15.50;;
8397;SDS011;4236;54.504;9.588;2023-11-21T11:52:40;17.20;;;16.20;;
8397;SDS011;4236;54.504;9.588;2023-11-21T11:55:08;16.50;;;15.50;;
8397;SDS011;4236;54.504;9.588;2023-11-21T11:57:40;18.43;;;17.33;;
8397;SDS011;4236;54.504;9.588;2023-11-21T12:00:13;17.93;;;16.70;;
8397;SDS011;4236;54.504;9.588;2023-11-21T12:02:45;18.57;;;17.47;;
8397;SDS011;4236;54.504;9.588;2023-11-21T12:05:14;17.47;;;16.47;;
8397;SDS011;4236;54.504;9.588;2023-11-21T12:07:42;17.97;;;16.97;;
8397;SDS011;4236;54.504;9.588;2023-11-21T12:10:12;17.87;;;16.77;;
8397;SDS011;4236;54.504;9.588;2023-11-21T12:12:44;18.63;;;17.23;;
8397;SDS011;4236;54.504;9.588;2023-11-21T12:15:13;17.57;;;16.47;;
8397;SDS011;4236;54.504;9.588;2023-11-21T12:17:41;16.87;;;15.77;;
8397;SDS011;4236;54.504;9.588;2023-11-21T12:20:10;18.73;;;17.60;;
8397;SDS011;4236;54.504;9.588;2023-11-21T12:22:42;17.93;;;16.90;;
8397;SDS011;4236;54.504;9.588;2023-11-21T12:25:10;16.70;;;15.60;;
8397;SDS011;4236;54.504;9.588;2023-11-21T12:27:42;16.17;;;15.13;;
8397;SDS011;4236;54.504;9.588;2023-11-21T12:30:11;18.03;;;16.80;;
8397;SDS011;4236;54.504;9.588;2023-11-21T12:32:43;17.17;;;16.17;;
8397;SDS011;4236;54.504;9.588;2023-11-21T12:35:12;17.90;;;16.70;;
8397;SDS011;4236;54.504;9.588;2023-11-21T12:37:40;17.10;;;15.93;;
8397;SDS011;4236;54.504;9.588;2023-11-21T12:40:09;17.80;;;16.90;;
8397;SDS011;4236;54.504;9.588;2023-11-21T12:42:39;18.27;;;16.97;;
8397;SDS011;4236;54.504;9.588;2023-11-21T12:45:10;17.87;;;16.87;;
8397;SDS011;4236;54.504;9.588;2023-11-21T12:47:43;17.87;;;16.77;;
8397;SDS011;4236;54.504;9.588;2023-11-21T12:50:11;18.93;;;17.93;;
8397;SDS011;4236;54.504;9.588;2023-11-21T12:52:41;19.00;;;18.00;;
8397;SDS011;4236;54.504;9.588;2023-11-21T12:55:10;16.83;;;16.00;;
8397;SDS011;4236;54.504;9.588;2023-11-21T12:57:44;16.63;;;15.63;;
8397;SDS011;4236;54.504;9.588;2023-11-21T13:00:12;17.83;;;16.63;;
8397;SDS011;4236;54.504;9.588;2023-11-21T13:02:52;15.80;;;14.80;;
8397;SDS011;4236;54.504;9.588;2023-11-21T13:05:23;16.70;;;15.70;;
8397;SDS011;4236;54.504;9.588;2023-11-21T13:07:51;17.07;;;16.07;;
8397;SDS011;4236;54.504;9.588;2023-11-21T13:10:21;17.67;;;16.10;;
8397;SDS011;4236;54.504;9.588;2023-11-21T13:12:52;16.63;;;15.73;;
8397;SDS011;4236;54.504;9.588;2023-11-21T13:15:21;16.53;;;15.60;;
8397;SDS011;4236;54.504;9.588;2023-11-21T13:17:48;14.73;;;14.03;;
8397;SDS011;4236;54.504;9.588;2023-11-21T13:20:18;17.30;;;15.70;;
8397;SDS011;4236;54.504;9.588;2023-11-21T13:22:47;16.60;;;15.70;;
8397;SDS011;4236;54.504;9.588;2023-11-21T13:25:15;16.60;;;15.77;;
8397;SDS011;4236;54.504;9.588;2023-11-21T13:27:44;15.10;;;14.20;;
8397;SDS011;4236;54.504;9.588;2023-11-21T13:30:12;14.80;;;13.90;;
8397;SDS011;4236;54.504;9.588;2023-11-21T13:32:42;13.97;;;13.37;;
8397;SDS011;4236;54.504;9.588;2023-11-21T13:35:10;16.50;;;15.50;;
8397;SDS011;4236;54.504;9.588;2023-11-21T13:37:48;15.20;;;14.40;;
8397;SDS011;4236;54.504;9.588;2023-11-21T13:40:21;16.47;;;15.57;;
8397;SDS011;4236;54.504;9.588;2023-11-21T13:42:52;16.10;;;15.30;;
8397;SDS011;4236;54.504;9.588;2023-11-21T13:45:25;15.50;;;14.80;;
8397;SDS011;4236;54.504;9.588;2023-11-21T13:47:54;15.70;;;14.90;;
8397;SDS011;4236;54.504;9.588;2023-11-21T13:50:24;16.07;;;15.10;;
8397;SDS011;4236;54.504;9.588;2023-11-21T13:52:57;16.23;;;15.20;;
8397;SDS011;4236;54.504;9.588;2023-11-21T13:55:29;16.17;;;15.33;;
8397;SDS011;4236;54.504;9.588;2023-11-21T13:57:56;16.63;;;15.63;;
8397;SDS011;4236;54.504;9.588;2023-11-21T14:00:25;15.60;;;14.80;;
8397;SDS011;4236;54.504;9.588;2023-11-21T14:03:12;16.60;;;15.50;;
8397;SDS011;4236;54.504;9.588;2023-11-21T14:05:47;16.27;;;14.90;;
8397;SDS011;4236;54.504;9.588;2023-11-21T14:08:19;14.77;;;13.80;;
8397;SDS011;4236;54.504;9.588;2023-11-21T14:10:47;16.50;;;15.50;;
8397;SDS011;4236;54.504;9.588;2023-11-21T14:13:21;16.17;;;15.37;;
8397;SDS011;4236;54.504;9.588;2023-11-21T14:15:49;15.70;;;14.80;;
8397;SDS011;4236;54.504;9.588;2023-11-21T14:18:20;17.27;;;16.07;;
8397;SDS011;4236;54.504;9.588;2023-11-21T14:20:56;17.27;;;15.97;;
8397;SDS011;4236;54.504;9.588;2023-11-21T14:23:26;22.90;;;20.90;;
8397;SDS011;4236;54.504;9.588;2023-11-21T14:25:54;16.70;;;15.77;;
8397;SDS011;4236;54.504;9.588;2023-11-21T14:28:22;18.10;;;16.60;;
8397;SDS011;4236;54.504;9.588;2023-11-21T14:30:50;17.50;;;16.40;;
8397;SDS011;4236;54.504;9.588;2023-11-21T14:33:17;16.13;;;15.03;;
8397;SDS011;4236;54.504;9.588;2023-11-21T14:35:45;14.40;;;13.50;;
8397;SDS011;4236;54.504;9.588;2023-11-21T14:38:13;14.50;;;13.43;;
8397;SDS011;4236;54.504;9.588;2023-11-21T14:40:42;13.10;;;12.00;;
8397;SDS011;4236;54.504;9.588;2023-11-21T14:43:10;13.83;;;13.03;;
8397;SDS011;4236;54.504;9.588;2023-11-21T14:45:39;15.33;;;14.40;;
8397;SDS011;4236;54.504;9.588;2023-11-21T14:48:06;14.70;;;13.90;;
8397;SDS011;4236;54.504;9.588;2023-11-21T14:50:42;16.97;;;15.77;;
8397;SDS011;4236;54.504;9.588;2023-11-21T14:53:18;17.37;;;16.27;;
8397;SDS011;4236;54.504;9.588;2023-11-21T14:56:07;15.30;;;14.30;;
8397;SDS011;4236;54.504;9.588;2023-11-21T14:58:35;16.93;;;15.80;;
8397;SDS011;4236;54.504;9.588;2023-11-21T15:01:03;16.67;;;15.77;;